Time;durP1;ratioP1;P1;durP2;ratioP2;P2;SDS_P1;SDS_P2;PMS_P1;PMS_P2;Temp;Humidity;BMP_temperature;BMP_pressure;BME280_temperature;BME280_humidity;BME280_pressure;Samples;Min_cycle;Max_cycle;Signal;HPM_P1;HPM_P2
2021/07/18 00:01:30;;;;;;;7.78;3.60;;;21.60;99.90;;;;;;4190773;28;20055;-63
2021/07/18 00:03:32;;;;;;;5.03;3.13;;;21.50;99.90;;;;;;4189492;28;20025;-63
2021/07/18 00:05:33;;;;;;;3.88;3.00;;;21.50;99.90;;;;;;4190986;28;20435;-62
2021/07/18 00:07:34;;;;;;;8.82;3.90;;;21.50;99.90;;;;;;4190263;28;20094;-62
2021/07/18 00:09:38;;;;;;;10.35;4.38;;;21.50;99.90;;;;;;4188673;28;20536;-62
2021/07/18 00:11:39;;;;;;;6.85;4.53;;;21.40;99.90;;;;;;4190601;28;20755;-62
2021/07/18 00:13:40;;;;;;;6.18;4.35;;;21.20;99.90;;;;;;4171489;28;20041;-62
2021/07/18 00:15:41;;;;;;;6.43;4.00;;;21.10;99.90;;;;;;4191078;28;20040;-62
2021/07/18 00:17:43;;;;;;;8.95;3.80;;;21.00;99.90;;;;;;4189181;28;20016;-62
2021/07/18 00:19:44;;;;;;;5.90;3.95;;;21.00;99.90;;;;;;4190834;28;20085;-63
2021/07/18 00:21:45;;;;;;;7.82;3.90;;;20.90;99.90;;;;;;4188870;28;20040;-62
2021/07/18 00:23:46;;;;;;;9.18;4.50;;;20.90;99.90;;;;;;4190693;28;20549;-62
2021/07/18 00:25:47;;;;;;;6.38;4.10;;;20.90;99.90;;;;;;4189140;28;20032;-62
2021/07/18 00:27:48;;;;;;;6.00;3.38;;;20.80;99.90;;;;;;4190137;28;20040;-62
2021/07/18 00:29:49;;;;;;;5.78;3.33;;;20.70;99.90;;;;;;4189288;28;20431;-62
2021/07/18 00:31:51;;;;;;;4.43;3.45;;;20.70;99.90;;;;;;4190369;28;20028;-63
2021/07/18 00:33:52;;;;;;;9.43;4.07;;;20.70;99.90;;;;;;4187896;28;20055;-62
2021/07/18 00:35:53;;;;;;;5.32;4.07;;;20.70;99.90;;;;;;4190347;28;20028;-62
2021/07/18 00:37:54;;;;;;;6.13;3.40;;;20.70;99.90;;;;;;4189417;28;20028;-62
2021/07/18 00:39:56;;;;;;;7.80;3.72;;;20.70;99.90;;;;;;4189604;28;20033;-61
2021/07/18 00:41:59;;;;;;;7.65;4.28;;;20.60;99.90;;;;;;4190350;28;20114;-62
2021/07/18 00:44:00;;;;;;;6.38;4.05;;;20.60;99.90;;;;;;4189005;28;20036;-62
2021/07/18 00:46:02;;;;;;;5.18;3.63;;;20.50;99.90;;;;;;4190558;28;20106;-62
2021/07/18 00:48:05;;;;;;;5.32;3.67;;;20.40;99.90;;;;;;4189049;28;20074;-62
2021/07/18 00:50:13;;;;;;;8.85;4.18;;;20.40;99.90;;;;;;4190206;28;20048;-62
2021/07/18 00:52:14;;;;;;;5.05;3.45;;;20.30;99.90;;;;;;4188834;28;20089;-62
2021/07/18 00:54:16;;;;;;;10.57;4.28;;;20.20;99.90;;;;;;4190168;28;20040;-62
2021/07/18 00:56:18;;;;;;;3.88;3.47;;;20.10;99.90;;;;;;4188895;28;20036;-61
2021/07/18 00:58:20;;;;;;;10.55;4.30;;;20.10;99.90;;;;;;4190310;28;20613;-62
2021/07/18 01:00:21;;;;;;;6.35;3.60;;;20.10;99.90;;;;;;4189179;28;20474;-62
2021/07/18 01:02:22;;;;;;;8.32;3.75;;;20.00;99.90;;;;;;4190281;28;20071;-62
2021/07/18 01:04:23;;;;;;;8.18;4.72;;;20.00;99.90;;;;;;4188478;28;20469;-62
2021/07/18 01:06:25;;;;;;;9.82;5.32;;;20.00;99.90;;;;;;4190473;28;20033;-62
2021/07/18 01:08:27;;;;;;;8.82;4.70;;;20.00;99.90;;;;;;4189293;28;20657;-62
2021/07/18 01:10:28;;;;;;;6.57;3.88;;;19.90;99.90;;;;;;4189763;28;20048;-62
2021/07/18 01:12:30;;;;;;;5.78;4.50;;;19.80;99.90;;;;;;4189136;28;20477;-62
2021/07/18 01:14:31;;;;;;;5.82;4.00;;;19.80;99.90;;;;;;4189230;28;20033;-62
2021/07/18 01:16:32;;;;;;;7.22;4.22;;;19.70;99.90;;;;;;4189366;28;20036;-62
2021/07/18 01:18:34;;;;;;;9.27;4.20;;;19.60;99.90;;;;;;4188211;28;20995;-62
2021/07/18 01:20:35;;;;;;;8.75;4.40;;;19.60;99.90;;;;;;4189884;28;20036;-61
2021/07/18 01:22:37;;;;;;;8.88;4.70;;;19.60;99.90;;;;;;4188322;28;20029;-61
2021/07/18 01:24:39;;;;;;;5.65;4.10;;;19.60;99.90;;;;;;4190211;28;20102;-61
2021/07/18 01:26:40;;;;;;;6.82;4.63;;;19.60;99.90;;;;;;4188652;28;20033;-60
2021/07/18 01:28:41;;;;;;;8.27;4.10;;;19.60;99.90;;;;;;4189999;28;20036;-61
2021/07/18 01:30:42;;;;;;;8.30;4.60;;;19.50;99.90;;;;;;4188490;28;20048;-61
2021/07/18 01:32:44;;;;;;;4.88;4.05;;;19.60;99.90;;;;;;4189196;28;20034;-62
2021/07/18 01:34:45;;;;;;;9.13;4.97;;;19.60;99.90;;;;;;4188455;28;20510;-61
2021/07/18 01:36:46;;;;;;;12.93;4.53;;;19.60;99.90;;;;;;4190457;28;20029;-62
2021/07/18 01:38:47;;;;;;;9.00;4.32;;;19.60;99.90;;;;;;4190308;28;20053;-61
2021/07/18 01:40:48;;;;;;;12.07;4.93;;;19.60;99.90;;;;;;4193025;28;20040;-61
2021/07/18 01:42:51;;;;;;;10.05;4.45;;;19.50;99.90;;;;;;4192335;28;20106;-61
2021/07/18 01:44:52;;;;;;;7.32;4.32;;;19.50;99.90;;;;;;4190883;28;20067;-61
2021/07/18 01:46:54;;;;;;;7.45;5.50;;;19.50;99.90;;;;;;4192729;28;20032;-60
2021/07/18 01:48:55;;;;;;;12.65;4.53;;;19.40;99.90;;;;;;4191573;28;20074;-62
2021/07/18 01:50:56;;;;;;;7.90;4.57;;;19.40;99.90;;;;;;4192830;28;20032;-62
2021/07/18 01:53:00;;;;;;;9.00;4.72;;;19.40;99.90;;;;;;4191661;28;20554;-61
2021/07/18 01:55:01;;;;;;;8.07;4.25;;;19.40;99.90;;;;;;4192418;28;20087;-61
2021/07/18 01:57:28;;;;;;;6.35;4.82;;;19.30;99.90;;;;;;4191541;28;20075;-60
2021/07/18 01:59:29;;;;;;;6.30;4.38;;;19.30;99.90;;;;;;4193003;28;20074;-61
2021/07/18 02:01:32;;;;;;;9.02;4.40;;;19.30;99.90;;;;;;4191407;28;20505;-63
2021/07/18 02:03:33;;;;;;;5.30;4.20;;;19.30;99.90;;;;;;4192855;28;20396;-61
2021/07/18 02:05:34;;;;;;;8.43;3.88;;;19.30;99.90;;;;;;4191894;28;20036;-61
2021/07/18 02:07:36;;;;;;;7.95;3.90;;;19.30;99.90;;;;;;4193017;28;20538;-61
2021/07/18 02:09:38;;;;;;;15.23;4.68;;;19.30;99.90;;;;;;4190968;28;20052;-62
2021/07/18 02:11:40;;;;;;;6.82;3.88;;;19.30;99.90;;;;;;4193357;28;20434;-61
2021/07/18 02:13:41;;;;;;;7.28;3.95;;;19.30;99.90;;;;;;4191299;28;20094;-63
2021/07/18 02:15:42;;;;;;;8.35;3.72;;;19.30;99.90;;;;;;4192719;28;20028;-61
2021/07/18 02:17:43;;;;;;;6.70;4.47;;;19.30;99.90;;;;;;4191443;28;20134;-61
2021/07/18 02:19:44;;;;;;;8.43;4.05;;;19.30;99.90;;;;;;4192294;28;20082;-62
2021/07/18 02:21:46;;;;;;;9.75;3.92;;;19.30;99.90;;;;;;4191721;28;20040;-61
2021/07/18 02:23:49;;;;;;;7.95;3.97;;;19.40;99.90;;;;;;4192002;28;20040;-61
2021/07/18 02:25:50;;;;;;;7.25;3.85;;;19.40;99.90;;;;;;4192037;28;20828;-61
2021/07/18 02:27:55;;;;;;;9.80;4.90;;;19.50;99.90;;;;;;4190042;28;20047;-62
2021/07/18 02:29:56;;;;;;;8.93;3.40;;;19.50;99.90;;;;;;4192277;28;20029;-62
2021/07/18 02:31:57;;;;;;;6.50;3.50;;;19.50;99.90;;;;;;4190913;28;20090;-61
2021/07/18 02:33:58;;;;;;;6.38;3.47;;;19.60;99.90;;;;;;4192303;28;20033;-61
2021/07/18 02:36:00;;;;;;;6.10;3.38;;;19.50;99.90;;;;;;4191630;28;20546;-62
2021/07/18 02:38:02;;;;;;;4.22;3.25;;;19.50;99.90;;;;;;4192516;28;20497;-62
2021/07/18 02:40:04;;;;;;;5.68;4.35;;;19.50;99.90;;;;;;4190663;28;20031;-61
2021/07/18 02:42:06;;;;;;;5.00;3.33;;;19.50;99.90;;;;;;4192581;28;20040;-61
2021/07/18 02:44:08;;;;;;;6.88;3.40;;;19.60;99.90;;;;;;4190775;28;20036;-62
2021/07/18 02:46:09;;;;;;;8.52;3.70;;;19.60;99.90;;;;;;4192364;28;20082;-60
2021/07/18 02:48:10;;;;;;;9.20;4.03;;;19.60;99.90;;;;;;4190327;28;20623;-61
2021/07/18 02:50:13;;;;;;;8.93;3.70;;;19.60;99.90;;;;;;4190901;28;20044;-62
2021/07/18 02:52:15;;;;;;;8.93;4.75;;;19.60;99.90;;;;;;4190499;28;20074;-61
2021/07/18 02:54:16;;;;;;;7.20;3.67;;;19.50;99.90;;;;;;4192151;28;20444;-62
2021/07/18 02:56:17;;;;;;;6.35;3.88;;;19.40;99.90;;;;;;4191434;28;20032;-62
2021/07/18 02:58:18;;;;;;;16.35;9.57;;;19.40;99.90;;;;;;4190938;28;20926;-62
2021/07/18 03:00:22;;;;;;;6.90;4.13;;;19.40;99.90;;;;;;4191746;28;20570;-61
2021/07/18 03:02:23;;;;;;;7.43;3.90;;;19.50;99.90;;;;;;4190530;28;20021;-60
2021/07/18 03:04:25;;;;;;;10.20;3.65;;;19.50;99.90;;;;;;4191915;28;20041;-61
2021/07/18 03:06:26;;;;;;;5.13;4.10;;;19.50;99.90;;;;;;4190840;28;20102;-62
2021/07/18 03:08:28;;;;;;;8.02;3.88;;;19.50;99.90;;;;;;4192689;28;20546;-61
2021/07/18 03:10:29;;;;;;;5.45;3.60;;;19.50;99.90;;;;;;4190746;28;20048;-62
2021/07/18 03:12:31;;;;;;;17.90;4.65;;;19.60;99.90;;;;;;4192689;28;20106;-62
2021/07/18 03:14:32;;;;;;;6.55;4.25;;;19.70;99.90;;;;;;4190225;28;20791;-62
2021/07/18 03:16:33;;;;;;;6.78;3.47;;;19.90;99.90;;;;;;4191718;28;20051;-62
2021/07/18 03:18:35;;;;;;;8.68;3.60;;;20.00;99.90;;;;;;4190166;28;20036;-62
2021/07/18 03:20:36;;;;;;;8.48;3.40;;;20.10;99.90;;;;;;4191947;28;20025;-63
2021/07/18 03:22:38;;;;;;;5.47;3.47;;;20.30;99.90;;;;;;4190473;28;20459;-62
2021/07/18 03:24:39;;;;;;;8.63;4.50;;;20.40;99.90;;;;;;4191276;28;20093;-62
2021/07/18 03:26:40;;;;;;;4.38;3.53;;;20.60;99.90;;;;;;4190684;28;20020;-61
2021/07/18 03:28:42;;;;;;;6.35;3.65;;;20.70;99.90;;;;;;4190660;28;20572;-61
2021/07/18 03:30:43;;;;;;;7.75;3.42;;;20.80;99.90;;;;;;4190945;28;20036;-62
2021/07/18 03:32:45;;;;;;;3.83;3.10;;;21.00;99.90;;;;;;4189740;28;20085;-62
2021/07/18 03:34:47;;;;;;;3.40;2.85;;;21.30;99.90;;;;;;4190502;28;20090;-62
2021/07/18 03:36:48;;;;;;;7.47;3.50;;;21.50;99.90;;;;;;4190125;28;20078;-61
2021/07/18 03:38:49;;;;;;;6.68;3.90;;;21.90;99.90;;;;;;4191517;28;20082;-62
2021/07/18 03:40:50;;;;;;;13.63;8.15;;;22.20;99.90;;;;;;4190028;28;20569;-62
2021/07/18 03:42:51;;;;;;;8.77;4.63;;;22.50;99.90;;;;;;4191679;28;20074;-61
2021/07/18 03:44:52;;;;;;;8.98;3.47;;;22.80;99.90;;;;;;4188367;28;20534;-61
2021/07/18 03:46:53;;;;;;;6.60;3.60;;;23.00;99.90;;;;;;4191590;28;20435;-62
2021/07/18 03:48:56;;;;;;;7.00;3.10;;;23.30;99.90;;;;;;4189689;28;20021;-62
2021/07/18 03:50:57;;;;;;;6.20;2.95;;;23.70;99.90;;;;;;4191333;28;20040;-62
2021/07/18 03:52:58;;;;;;;6.10;3.25;;;24.00;99.90;;;;;;4189588;28;20033;-62
2021/07/18 03:55:00;;;;;;;7.13;3.10;;;24.30;99.90;;;;;;4191160;28;20451;-61
2021/07/18 03:57:01;;;;;;;6.05;2.90;;;24.50;99.90;;;;;;4189363;28;20036;-62
2021/07/18 03:59:02;;;;;;;7.40;3.05;;;24.80;99.90;;;;;;4190314;28;20419;-63
2021/07/18 04:01:09;;;;;;;8.32;3.33;;;25.10;99.60;;;;;;4190290;28;20044;-62
2021/07/18 04:03:11;;;;;;;6.53;2.95;;;25.40;99.10;;;;;;4190098;28;20024;-61
2021/07/18 04:05:12;;;;;;;6.55;4.10;;;25.70;98.60;;;;;;4190676;28;20464;-62
2021/07/18 04:07:13;;;;;;;8.13;3.08;;;26.10;98.00;;;;;;4189578;28;20461;-62
2021/07/18 04:09:14;;;;;;;6.85;3.10;;;26.40;97.40;;;;;;4191144;28;20028;-61
2021/07/18 04:11:16;;;;;;;5.75;2.72;;;26.60;96.90;;;;;;4189256;28;20451;-63
2021/07/18 04:13:17;;;;;;;4.65;2.88;;;26.80;96.50;;;;;;4191060;28;20074;-61
2021/07/18 04:15:18;;;;;;;4.45;2.88;;;26.80;96.10;;;;;;4189543;28;20074;-62
2021/07/18 04:17:19;;;;;;;7.60;3.70;;;26.80;95.80;;;;;;4191107;28;20495;-62
2021/07/18 04:19:20;;;;;;;8.15;2.85;;;26.80;95.60;;;;;;4189148;28;20025;-62
2021/07/18 04:21:21;;;;;;;6.65;3.35;;;26.90;95.40;;;;;;4190730;28;20093;-63
2021/07/18 04:23:22;;;;;;;5.55;3.13;;;27.30;95.00;;;;;;4189170;28;20078;-63
2021/07/18 04:25:23;;;;;;;5.63;2.47;;;27.60;94.40;;;;;;4190760;28;20037;-63
2021/07/18 04:27:25;;;;;;;5.97;2.63;;;28.00;94.10;;;;;;4189217;28;20074;-62
2021/07/18 04:29:26;;;;;;;4.68;2.88;;;28.40;93.50;;;;;;4190221;28;20106;-62
2021/07/18 04:31:27;;;;;;;4.53;2.60;;;28.80;92.80;;;;;;4189376;28;20086;-62
2021/07/18 04:33:28;;;;;;;5.97;2.90;;;29.00;92.40;;;;;;4189532;28;20036;-62
2021/07/18 04:35:30;;;;;;;7.30;2.67;;;;;;;;;;4190495;28;20040;-61
2021/07/18 04:37:31;;;;;;;5.50;2.50;;;;;;;;;;4189032;28;20074;-61
2021/07/18 04:39:32;;;;;;;5.05;2.38;;;29.20;91.70;;;;;;4190306;28;20048;-61
2021/07/18 04:41:34;;;;;;;5.80;2.45;;;29.30;90.60;;;;;;4188665;28;20028;-61
2021/07/18 04:43:36;;;;;;;5.45;2.78;;;;;;;;;;4190235;28;20028;-63
2021/07/18 04:45:37;;;;;;;5.72;2.55;;;;;;;;;;4188875;28;20426;-62
2021/07/18 04:47:49;;;;;;;7.00;2.50;;;;;;;;;;4190709;28;20164;-63
2021/07/18 04:49:52;;;;;;;5.95;2.60;;;;;;;;;;4188688;28;20114;-61
2021/07/18 04:51:54;;;;;;;9.38;3.08;;;;;;;;;;4190101;28;20021;-62
2021/07/18 04:53:55;;;;;;;9.38;3.40;;;;;;;;;;4188585;28;20028;-61
2021/07/18 04:55:58;;;;;;;2.53;2.13;;;;;;;;;;4190479;28;20540;-62
2021/07/18 04:57:59;;;;;;;4.53;2.70;;;;;;;;;;4188436;28;20838;-61
2021/07/18 05:00:00;;;;;;;7.15;2.97;;;;;;;;;;4190336;28;20054;-61
2021/07/18 05:02:02;;;;;;;6.45;2.65;;;;;;;;;;4188906;28;20077;-62
2021/07/18 05:04:04;;;;;;;6.50;3.08;;;;;;;;;;4189943;28;20074;-62
2021/07/18 05:06:05;;;;;;;8.30;2.65;;;;;;;;;;4189145;28;20032;-62
2021/07/18 05:08:07;;;;;;;7.50;2.67;;;;;;;;;;4189548;28;20036;-62
2021/07/18 05:10:08;;;;;;;7.07;3.05;;;;;;;;;;4189503;28;20060;-62
2021/07/18 05:12:10;;;;;;;7.22;2.25;;;;;;;;;;4188955;28;20552;-62
2021/07/18 05:14:11;;;;;;;7.30;2.80;;;;;;;;;;4189738;28;20098;-61
2021/07/18 05:16:13;;;;;;;5.15;2.60;;;;;;;;;;4188521;28;20871;-62
2021/07/18 05:18:14;;;;;;;4.03;2.33;;;;;;;;;;4190169;28;20029;-63
2021/07/18 05:20:18;;;;;;;4.82;2.80;;;29.40;90.50;;;;;;4188662;28;20086;-62
2021/07/18 05:22:19;;;;;;;7.25;2.67;;;33.40;76.10;;;;;;4189560;28;20466;-62
2021/07/18 05:24:20;;;;;;;9.05;2.20;;;33.50;75.30;;;;;;4188331;28;20020;-62
2021/07/18 05:26:22;;;;;;;5.07;2.17;;;33.60;74.60;;;;;;4190180;28;20086;-61
2021/07/18 05:28:23;;;;;;;6.75;2.88;;;33.30;74.20;;;;;;4188390;28;20024;-61
2021/07/18 05:30:24;;;;;;;4.13;2.47;;;33.20;74.30;;;;;;4189813;28;20798;-62
2021/07/18 05:32:25;;;;;;;4.18;2.38;;;33.30;73.70;;;;;;4188293;28;20653;-62
2021/07/18 05:34:26;;;;;;;4.18;2.22;;;33.50;73.00;;;;;;4189911;28;20044;-63
2021/07/18 05:36:27;;;;;;;3.97;2.42;;;33.50;72.20;;;;;;4188822;28;20427;-61
2021/07/18 05:38:28;;;;;;;7.18;2.35;;;33.10;72.10;;;;;;4188950;28;20439;-62
2021/07/18 05:40:29;;;;;;;5.90;2.45;;;33.20;72.00;;;;;;4188799;28;20020;-62
2021/07/18 05:42:31;;;;;;;2.38;2.03;;;33.20;71.50;;;;;;4188140;28;20481;-64
2021/07/18 05:44:32;;;;;;;9.32;2.92;;;33.30;71.10;;;;;;4188021;28;20040;-63
2021/07/18 05:46:33;;;;;;;3.97;2.30;;;33.10;70.90;;;;;;4187529;28;20058;-60
2021/07/18 05:48:35;;;;;;;6.32;2.20;;;33.10;70.90;;;;;;4189652;28;20032;-63
2021/07/18 05:50:36;;;;;;;4.60;2.70;;;32.90;70.90;;;;;;4188231;28;20086;-63
2021/07/18 05:52:38;;;;;;;6.35;2.83;;;33.20;70.50;;;;;;4189461;28;20036;-61
2021/07/18 05:54:39;;;;;;;7.40;3.58;;;33.60;70.00;;;;;;4188186;28;20036;-61
2021/07/18 05:56:40;;;;;;;6.70;3.40;;;33.60;70.00;;;;;;4189730;28;20074;-61
2021/07/18 05:58:41;;;;;;;5.75;3.08;;;;;;;;;;4187940;28;20041;-61
2021/07/18 06:00:43;;;;;;;4.13;2.78;;;33.10;70.20;;;;;;4189502;28;20374;-62
2021/07/18 06:02:44;;;;;;;12.73;3.50;;;31.60;72.60;;;;;;4187895;28;20141;-62
2021/07/18 06:04:45;;;;;;;7.97;3.30;;;31.00;73.40;;;;;;4189336;28;20610;-61
2021/07/18 06:06:46;;;;;;;8.10;3.15;;;30.60;74.30;;;;;;4188696;28;20090;-62
2021/07/18 06:08:47;;;;;;;8.52;3.47;;;30.00;75.00;;;;;;4187726;28;20443;-62
2021/07/18 06:10:49;;;;;;;5.97;3.28;;;29.50;76.60;;;;;;4188470;28;20055;-61
2021/07/18 06:12:50;;;;;;;7.03;3.67;;;29.30;77.40;;;;;;4188743;28;20161;-61
2021/07/18 06:14:51;;;;;;;8.45;3.03;;;29.30;77.70;;;;;;4189308;28;20427;-61
2021/07/18 06:16:52;;;;;;;7.60;3.45;;;28.90;78.30;;;;;;4187502;28;20025;-61
2021/07/18 06:18:54;;;;;;;4.80;3.33;;;28.60;78.90;;;;;;4189624;28;20101;-61
2021/07/18 06:20:55;;;;;;;5.45;3.72;;;28.30;79.70;;;;;;4187822;28;20477;-61
2021/07/18 06:22:56;;;;;;;7.40;3.20;;;28.40;80.30;;;;;;4189138;28;20098;-61
2021/07/18 06:24:57;;;;;;;8.07;3.42;;;28.70;80.10;;;;;;4189371;28;20028;-62
2021/07/18 06:26:58;;;;;;;4.20;3.35;;;28.80;80.20;;;;;;4191518;28;20044;-61
2021/07/18 06:29:02;;;;;;;8.52;3.60;;;28.40;81.00;;;;;;4190747;28;20082;-62
2021/07/18 06:31:03;;;;;;;8.73;3.30;;;28.10;82.10;;;;;;4192419;28;20094;-62
2021/07/18 06:33:04;;;;;;;4.57;3.33;;;28.00;82.90;;;;;;4190974;28;20489;-61
2021/07/18 06:35:07;;;;;;;3.72;3.30;;;28.10;83.70;;;;;;4192160;28;20036;-62
2021/07/18 06:37:09;;;;;;;8.35;3.55;;;28.30;83.60;;;;;;4190594;28;20538;-62
2021/07/18 06:39:10;;;;;;;5.68;3.50;;;28.00;84.00;;;;;;4191590;28;20110;-62
2021/07/18 06:41:11;;;;;;;5.30;3.38;;;28.00;84.40;;;;;;4191275;28;20036;-62
2021/07/18 06:43:12;;;;;;;7.22;3.47;;;27.90;85.10;;;;;;4191343;28;20098;-62
2021/07/18 06:45:14;;;;;;;4.38;3.80;;;27.70;85.70;;;;;;4191741;28;20090;-62
2021/07/18 06:47:15;;;;;;;7.68;3.83;;;27.80;85.90;;;;;;4190659;28;20523;-62
2021/07/18 06:49:16;;;;;;;4.25;2.95;;;27.80;86.10;;;;;;4191879;28;20082;-61
2021/07/18 06:51:17;;;;;;;8.25;3.22;;;27.80;85.20;;;;;;4190319;28;20032;-61
2021/07/18 06:53:18;;;;;;;9.98;3.17;;;27.70;84.30;;;;;;4192691;28;20498;-61
2021/07/18 06:55:19;;;;;;;6.95;3.65;;;27.80;83.80;;;;;;4190476;28;20021;-62
2021/07/18 06:57:21;;;;;;;4.22;3.15;;;27.90;84.00;;;;;;4192156;28;20044;-62
2021/07/18 06:59:22;;;;;;;6.55;3.30;;;27.80;83.90;;;;;;4190497;28;20942;-61
2021/07/18 07:01:24;;;;;;;8.43;3.60;;;27.70;83.60;;;;;;4192300;28;20712;-62
2021/07/18 07:03:25;;;;;;;3.85;3.47;;;27.80;83.40;;;;;;4190368;28;20025;-62
2021/07/18 07:05:26;;;;;;;10.30;3.53;;;28.30;82.30;;;;;;4191568;28;20032;-61
2021/07/18 07:07:27;;;;;;;6.30;3.17;;;28.50;80.60;;;;;;4190387;28;20021;-62
2021/07/18 07:09:28;;;;;;;5.57;3.05;;;28.70;80.20;;;;;;4191242;28;20044;-62
2021/07/18 07:11:30;;;;;;;11.35;3.45;;;28.60;80.00;;;;;;4190496;28;20037;-62
2021/07/18 07:13:31;;;;;;;8.57;2.97;;;28.30;80.30;;;;;;4190836;28;20041;-62
2021/07/18 07:15:32;;;;;;;5.07;3.60;;;28.10;80.90;;;;;;4190948;28;20093;-62
2021/07/18 07:17:33;;;;;;;7.53;3.40;;;28.10;81.00;;;;;;4190169;28;20106;-62
2021/07/18 07:19:34;;;;;;;6.45;3.55;;;28.30;80.90;;;;;;4191720;28;20040;-62
2021/07/18 07:21:36;;;;;;;6.45;3.35;;;28.70;80.60;;;;;;4189744;28;20032;-62
2021/07/18 07:23:37;;;;;;;6.82;2.80;;;28.80;80.10;;;;;;4191677;28;20082;-62
2021/07/18 07:25:38;;;;;;;6.28;3.50;;;28.70;79.70;;;;;;4190155;28;20033;-62
2021/07/18 07:27:42;;;;;;;11.32;3.60;;;28.70;79.70;;;;;;4191320;28;20025;-62
2021/07/18 07:29:43;;;;;;;8.32;3.53;;;28.70;79.70;;;;;;4189477;28;20028;-62
2021/07/18 07:31:44;;;;;;;7.85;3.40;;;28.70;79.50;;;;;;4190892;28;20178;-62
2021/07/18 07:33:45;;;;;;;6.25;3.58;;;28.60;80.00;;;;;;4189332;28;20028;-62
2021/07/18 07:35:46;;;;;;;11.85;3.80;;;28.50;80.40;;;;;;4191357;28;20028;-62
2021/07/18 07:37:48;;;;;;;6.50;3.72;;;28.70;80.50;;;;;;4189854;28;20431;-62
2021/07/18 07:39:49;;;;;;;5.85;3.58;;;28.60;80.70;;;;;;4191049;28;20428;-61
2021/07/18 07:41:50;;;;;;;6.03;3.55;;;28.40;81.20;;;;;;4190406;28;20086;-64
2021/07/18 07:43:56;;;;;;;6.97;3.88;;;28.40;81.40;;;;;;4190270;28;20463;-62
2021/07/18 07:45:57;;;;;;;7.50;3.97;;;28.40;81.10;;;;;;4190188;28;20036;-62
2021/07/18 07:47:58;;;;;;;9.68;3.90;;;28.40;80.90;;;;;;4189552;28;20017;-62
2021/07/18 07:49:59;;;;;;;9.25;3.42;;;28.40;81.60;;;;;;4191036;28;20133;-63
2021/07/18 07:52:02;;;;;;;19.13;3.72;;;28.60;81.20;;;;;;4189175;28;20029;-61
2021/07/18 07:54:04;;;;;;;6.13;3.38;;;28.80;80.50;;;;;;4191122;28;20032;-62
2021/07/18 07:56:05;;;;;;;6.20;3.58;;;28.90;80.70;;;;;;4189402;28;20403;-62
2021/07/18 07:58:07;;;;;;;7.95;3.75;;;29.00;80.70;;;;;;4190891;28;20590;-62
2021/07/18 08:00:11;;;;;;;13.27;3.65;;;29.00;81.00;;;;;;4189061;28;20105;-63
2021/07/18 08:02:12;;;;;;;6.95;3.30;;;29.10;81.30;;;;;;4190606;28;20028;-62
2021/07/18 08:04:13;;;;;;;7.80;3.55;;;29.20;81.30;;;;;;4189234;28;20518;-62
2021/07/18 08:06:14;;;;;;;6.10;3.00;;;29.00;81.40;;;;;;4190740;28;20032;-62
2021/07/18 08:08:16;;;;;;;10.73;3.25;;;29.00;81.60;;;;;;4190118;28;20374;-62
2021/07/18 08:10:19;;;;;;;7.53;3.35;;;29.00;81.40;;;;;;4190744;28;20696;-62
2021/07/18 08:12:20;;;;;;;8.57;4.10;;;28.90;81.70;;;;;;4189373;28;20101;-62
2021/07/18 08:14:21;;;;;;;10.23;3.72;;;28.90;82.20;;;;;;4190800;28;20387;-63
2021/07/18 08:16:22;;;;;;;8.90;4.20;;;29.00;82.20;;;;;;4189768;28;20033;-62
2021/07/18 08:18:24;;;;;;;5.35;3.30;;;29.20;82.20;;;;;;4189465;28;20633;-63
2021/07/18 08:20:26;;;;;;;6.13;3.58;;;29.30;82.00;;;;;;4190276;28;20046;-63
2021/07/18 08:22:27;;;;;;;6.68;3.30;;;29.50;81.30;;;;;;4189212;28;20032;-63
2021/07/18 08:24:28;;;;;;;4.53;3.08;;;29.80;80.90;;;;;;4190760;28;20040;-63
2021/07/18 08:26:29;;;;;;;8.15;3.33;;;30.20;80.20;;;;;;4188708;28;20561;-62
2021/07/18 08:28:31;;;;;;;7.43;3.60;;;30.20;80.00;;;;;;4190648;28;20090;-62
2021/07/18 08:30:32;;;;;;;9.23;3.38;;;30.30;79.70;;;;;;4189035;28;20025;-63
2021/07/18 08:32:33;;;;;;;7.15;3.47;;;30.10;79.50;;;;;;4189999;28;20066;-63
2021/07/18 08:34:36;;;;;;;6.70;3.72;;;30.10;79.90;;;;;;4189222;28;20041;-62
2021/07/18 08:36:37;;;;;;;8.77;3.75;;;29.90;80.40;;;;;;4189065;28;20090;-62
2021/07/18 08:38:38;;;;;;;5.47;3.50;;;29.80;80.40;;;;;;4188625;28;20407;-62
2021/07/18 08:40:39;;;;;;;10.05;3.75;;;29.90;80.40;;;;;;4191129;28;20906;-62
2021/07/18 08:42:41;;;;;;;8.45;3.22;;;29.80;80.40;;;;;;4188642;28;20044;-62
2021/07/18 08:44:43;;;;;;;13.27;4.00;;;29.70;80.70;;;;;;4190146;28;20032;-62
2021/07/18 08:46:44;;;;;;;10.57;3.58;;;29.70;81.40;;;;;;4188479;28;20067;-62
2021/07/18 08:48:47;;;;;;;5.63;3.70;;;29.80;81.50;;;;;;4188581;28;20090;-62
2021/07/18 08:50:49;;;;;;;8.00;3.92;;;29.90;81.30;;;;;;4189441;28;20040;-62
2021/07/18 08:52:54;;;;;;;11.82;3.80;;;30.00;81.30;;;;;;4188824;28;20020;-62
2021/07/18 08:54:55;;;;;;;10.02;3.80;;;30.00;81.00;;;;;;4189086;28;20394;-62
2021/07/18 08:57:00;;;;;;;6.68;3.33;;;30.00;80.70;;;;;;4188248;28;20032;-62
2021/07/18 08:59:06;;;;;;;9.20;3.13;;;30.00;80.70;;;;;;4189676;28;20085;-62
2021/07/18 09:01:12;;;;;;;4.18;3.00;;;30.10;80.60;;;;;;4188397;28;20565;-62
2021/07/18 09:03:16;;;;;;;5.72;3.38;;;30.40;80.50;;;;;;4190085;28;20082;-62
2021/07/18 09:05:18;;;;;;;7.97;3.30;;;;;;;;;;4187998;28;20024;-62
2021/07/18 09:07:20;;;;;;;6.03;3.47;;;;;;;;;;4189761;28;20036;-62
2021/07/18 09:09:22;;;;;;;5.15;3.10;;;;;;;;;;4187538;28;20498;-62
2021/07/18 09:11:25;;;;;;;7.55;3.60;;;;;;;;;;4189760;28;20054;-62
2021/07/18 09:13:26;;;;;;;7.38;3.25;;;;;;;;;;4187809;28;20130;-62
2021/07/18 09:16:00;;;;;;;7.78;2.85;;;;;;;;;;4189705;28;20033;-62
2021/07/18 09:18:12;;;;;;;11.80;3.05;;;;;;;;;;4186113;28;20045;-61
2021/07/18 09:20:17;;;;;;;4.80;3.45;;;;;;;;;;4189246;28;20048;-62
2021/07/18 09:22:22;;;;;;;5.97;3.22;;;;;;;;;;4188148;28;20034;-62
2021/07/18 09:24:28;;;;;;;7.80;3.00;;;30.50;79.60;;;;;;4189444;28;20078;-63
2021/07/18 09:26:29;;;;;;;8.27;3.00;;;30.50;78.90;;;;;;4187745;28;20060;-61
2021/07/18 09:28:33;;;;;;;6.90;3.45;;;;;;;;;;4190224;28;20562;-62
2021/07/18 09:30:34;;;;;;;7.00;3.10;;;;;;;;;;4188080;28;20032;-62
2021/07/18 09:32:37;;;;;;;7.45;3.33;;;;;;;;;;4189691;28;20105;-61
2021/07/18 09:34:39;;;;;;;6.75;3.20;;;;;;;;;;4187870;28;20033;-62
2021/07/18 09:36:41;;;;;;;6.22;2.92;;;;;;;;;;4189885;28;20032;-62
2021/07/18 09:38:42;;;;;;;6.30;3.30;;;30.70;78.40;;;;;;4188223;28;20765;-61
2021/07/18 09:40:59;;;;;;;8.70;3.17;;;31.80;76.70;;;;;;4187411;28;20033;-61
2021/07/18 09:43:01;;;;;;;6.85;3.45;;;31.90;75.90;;;;;;4188011;28;20752;-61
2021/07/18 09:45:13;;;;;;;11.30;3.50;;;31.70;76.40;;;;;;4189109;28;20743;-63
2021/07/18 09:47:15;;;;;;;8.32;3.22;;;31.60;76.90;;;;;;4188153;28;20033;-62
2021/07/18 09:49:33;;;;;;;5.88;3.40;;;31.70;77.20;;;;;;4188630;28;20554;-62
2021/07/18 09:51:36;;;;;;;7.93;3.72;;;31.70;76.50;;;;;;4187978;28;20033;-62
2021/07/18 09:53:39;;;;;;;12.05;3.83;;;31.60;76.70;;;;;;4188612;28;20029;-62
2021/07/18 09:56:02;;;;;;;11.48;4.15;;;31.40;77.10;;;;;;4189088;28;20127;-62
2021/07/18 09:58:04;;;;;;;7.80;3.33;;;31.30;77.60;;;;;;4189133;28;20601;-62
2021/07/18 10:00:10;;;;;;;4.80;3.13;;;31.40;77.80;;;;;;4190967;28;20109;-63
2021/07/18 10:02:11;;;;;;;6.53;4.15;;;31.30;77.70;;;;;;4191936;28;20044;-62
2021/07/18 10:04:18;;;;;;;7.28;3.22;;;31.30;77.50;;;;;;4192015;28;20033;-62
2021/07/18 10:06:24;;;;;;;5.88;3.42;;;31.30;77.50;;;;;;4191172;28;20036;-63
2021/07/18 10:08:26;;;;;;;4.55;3.47;;;31.40;77.10;;;;;;4192546;28;20032;-62
2021/07/18 10:10:27;;;;;;;9.43;3.15;;;31.30;76.90;;;;;;4191069;28;20086;-62
2021/07/18 10:12:29;;;;;;;7.97;2.88;;;31.30;76.70;;;;;;4192700;28;20074;-61
2021/07/18 10:14:30;;;;;;;8.77;3.00;;;31.20;76.30;;;;;;4191233;28;20028;-63
2021/07/18 10:16:32;;;;;;;3.53;3.15;;;31.30;75.60;;;;;;4192642;28;20070;-61
2021/07/18 10:18:40;;;;;;;8.02;3.00;;;31.30;76.00;;;;;;4190646;28;20040;-61
2021/07/18 10:20:42;;;;;;;7.60;3.15;;;31.30;75.40;;;;;;4192558;28;20040;-62
2021/07/18 10:22:45;;;;;;;10.60;3.50;;;31.40;75.70;;;;;;4190538;28;20044;-62
2021/07/18 10:24:48;;;;;;;6.07;4.05;;;31.40;73.80;;;;;;4192414;28;20036;-61
2021/07/18 10:26:50;;;;;;;8.13;3.25;;;31.30;73.50;;;;;;4190672;28;20563;-62
2021/07/18 10:28:53;;;;;;;7.65;3.20;;;31.20;73.70;;;;;;4192814;28;20733;-62
2021/07/18 10:31:05;;;;;;;5.65;3.17;;;;;;;;;;4190527;28;20404;-62
2021/07/18 10:33:07;;;;;;;6.75;2.80;;;;;;;;;;4191816;28;20090;-63
2021/07/18 10:35:10;;;;;;;10.07;2.70;;;;;;;;;;4190318;28;20033;-63
2021/07/18 10:37:12;;;;;;;6.90;3.15;;;;;;;;;;4192049;28;20033;-62
2021/07/18 10:39:29;;;;;;;7.47;3.33;;;;;;;;;;4190445;28;20130;-62
2021/07/18 10:41:41;;;;;;;6.68;2.65;;;;;;;;;;4191880;28;20082;-61
2021/07/18 10:43:50;;;;;;;5.97;2.55;;;;;;;;;;4190393;28;21002;-62
2021/07/18 10:45:52;;;;;;;6.07;2.20;;;;;;;;;;4192277;28;20090;-62
2021/07/18 10:48:06;;;;;;;6.93;2.60;;;;;;;;;;4188957;28;20028;-62